createdAt,value
2019-03-17T00:21:23.376Z,11.80
2019-03-17T00:23:52.435Z,11.54
2019-03-17T00:26:21.329Z,11.60
2019-03-17T00:28:50.306Z,11.44
2019-03-17T00:31:24.063Z,11.42
2019-03-17T00:33:48.307Z,11.78
2019-03-17T00:36:17.502Z,11.53
2019-03-17T00:38:46.536Z,11.44
2019-03-17T00:41:15.644Z,11.48
2019-03-17T00:43:45.005Z,11.50
2019-03-17T00:46:14.272Z,11.51
2019-03-17T00:48:43.264Z,11.55
2019-03-17T00:51:12.294Z,11.38
2019-03-17T00:53:41.228Z,11.49
2019-03-17T00:56:10.201Z,11.33
2019-03-17T00:58:39.147Z,11.37
2019-03-17T01:01:08.280Z,11.28
2019-03-17T01:03:37.211Z,11.32
2019-03-17T01:06:06.277Z,11.39
2019-03-17T01:08:35.253Z,11.31
2019-03-17T01:11:04.264Z,11.38
2019-03-17T01:13:33.230Z,11.39
2019-03-17T01:16:02.261Z,11.32
2019-03-17T01:18:31.168Z,11.59
2019-03-17T01:21:00.161Z,11.23
2019-03-17T01:23:29.221Z,11.31
2019-03-17T01:25:58.156Z,11.12
2019-03-17T01:28:27.151Z,11.17
2019-03-17T01:30:56.129Z,11.25
2019-03-17T01:33:25.017Z,11.23
2019-03-17T01:35:54.026Z,11.14
2019-03-17T01:38:23.189Z,11.00
2019-03-17T01:40:52.207Z,11.14
2019-03-17T01:43:21.396Z,11.10
2019-03-17T01:45:50.402Z,11.15
2019-03-17T01:48:19.412Z,11.20
2019-03-17T01:50:48.587Z,11.17
2019-03-17T01:53:17.487Z,11.14
2019-03-17T01:55:49.453Z,10.87
2019-03-17T01:58:18.359Z,11.06
2019-03-17T02:00:47.393Z,10.95
2019-03-17T02:03:16.352Z,10.88
2019-03-17T02:05:45.355Z,11.01
2019-03-17T02:08:14.308Z,10.97
2019-03-17T02:10:43.276Z,11.01
2019-03-17T02:13:12.269Z,10.89
2019-03-17T02:15:41.305Z,10.93
2019-03-17T02:18:10.191Z,10.93
2019-03-17T02:20:39.210Z,11.23
2019-03-17T02:23:08.087Z,10.91
2019-03-17T02:25:37.061Z,10.94
2019-03-17T02:28:06.042Z,10.92
2019-03-17T02:30:35.078Z,10.79
2019-03-17T02:33:04.076Z,10.85
2019-03-17T02:35:39.318Z,10.77
2019-03-17T02:38:01.949Z,10.79
2019-03-17T02:40:30.977Z,10.77
2019-03-17T02:42:59.926Z,10.70
2019-03-17T02:45:28.880Z,10.72
2019-03-17T02:47:57.919Z,10.68
2019-03-17T02:50:26.851Z,10.68
2019-03-17T02:52:55.758Z,10.65
2019-03-17T02:55:24.751Z,10.55
2019-03-17T02:57:53.714Z,10.41
2019-03-17T03:00:22.703Z,10.38
2019-03-17T03:02:51.594Z,10.45
2019-03-17T03:05:20.623Z,10.67
2019-03-17T03:07:49.624Z,10.24
2019-03-17T03:10:18.559Z,10.06
2019-03-17T03:12:47.511Z,9.97
2019-03-17T03:15:16.434Z,9.76
2019-03-17T03:17:45.306Z,9.85
2019-03-17T03:20:14.208Z,9.78
2019-03-17T03:22:43.200Z,9.55
2019-03-17T03:25:12.164Z,9.57
2019-03-17T03:27:41.054Z,9.63
2019-03-17T03:30:10.099Z,9.63
2019-03-17T03:32:38.991Z,9.46
2019-03-17T03:35:08.139Z,9.53
2019-03-17T03:37:36.959Z,9.33
2019-03-17T03:40:06.018Z,9.31
2019-03-17T03:42:34.882Z,9.22
2019-03-17T03:45:04.379Z,9.16
2019-03-17T03:47:33.276Z,9.29
2019-03-17T03:50:05.121Z,9.29
2019-03-17T03:52:33.983Z,9.34
2019-03-17T03:55:02.897Z,9.19
2019-03-17T03:57:31.814Z,9.25
2019-03-17T04:00:00.809Z,9.16
2019-03-17T04:02:29.783Z,9.46
2019-03-17T04:04:58.691Z,9.68
2019-03-17T04:07:27.554Z,9.30
2019-03-17T04:09:56.465Z,9.30
2019-03-17T04:12:25.387Z,9.33
2019-03-17T04:14:54.384Z,9.21
2019-03-17T04:17:23.236Z,9.13
2019-03-17T04:19:52.163Z,9.25
2019-03-17T04:22:21.095Z,9.10
2019-03-17T04:24:49.999Z,9.10
2019-03-17T04:27:18.928Z,9.13
2019-03-17T04:29:47.883Z,9.06
2019-03-17T04:32:16.832Z,9.36
2019-03-17T04:34:45.723Z,9.24
2019-03-17T04:37:14.581Z,9.19
2019-03-17T04:39:43.532Z,9.10
2019-03-17T04:42:12.474Z,9.15
2019-03-17T04:44:41.431Z,9.01
2019-03-17T04:47:10.414Z,8.95
2019-03-17T04:49:39.271Z,8.92
2019-03-17T04:52:08.257Z,9.10
2019-03-17T04:54:37.137Z,9.04
2019-03-17T04:57:06.089Z,9.08
2019-03-17T04:59:35.001Z,8.89
2019-03-17T05:02:03.941Z,8.94
2019-03-17T05:04:32.928Z,8.94
2019-03-17T05:07:01.795Z,8.96
2019-03-17T05:09:30.715Z,8.96
2019-03-17T05:11:59.634Z,9.22
2019-03-17T05:14:28.575Z,9.09
2019-03-17T05:16:57.504Z,9.08
2019-03-17T05:19:26.382Z,8.98
2019-03-17T05:21:55.313Z,8.97
2019-03-17T05:24:24.261Z,8.86
2019-03-17T05:26:53.146Z,8.74
2019-03-17T05:29:22.079Z,8.57
2019-03-17T05:31:51.008Z,8.41
2019-03-17T05:34:19.908Z,8.31
2019-03-17T05:36:48.836Z,8.46
2019-03-17T05:39:17.742Z,8.23
2019-03-17T05:41:46.638Z,8.12
2019-03-17T05:44:15.563Z,8.00
2019-03-17T05:46:44.518Z,7.89
2019-03-17T05:49:13.448Z,8.11
2019-03-17T05:51:42.369Z,7.93
2019-03-17T05:54:11.331Z,7.85
2019-03-17T05:56:40.312Z,7.83
2019-03-17T05:59:09.332Z,7.82
2019-03-17T06:01:38.260Z,7.82
2019-03-17T06:04:07.216Z,8.00
2019-03-17T06:06:36.093Z,7.69
2019-03-17T06:09:07.086Z,7.70
2019-03-17T06:11:36.055Z,7.68
2019-03-17T06:14:05.109Z,7.65
2019-03-17T06:16:33.999Z,7.62
2019-03-17T06:19:02.918Z,7.62
2019-03-17T06:21:31.831Z,7.57
2019-03-17T06:24:00.731Z,7.88
2019-03-17T06:26:29.676Z,7.64
2019-03-17T06:28:58.698Z,7.56
2019-03-17T06:31:27.570Z,7.58
2019-03-17T06:33:56.590Z,7.60
2019-03-17T06:36:25.482Z,7.61
2019-03-17T06:38:54.414Z,7.45
2019-03-17T06:41:23.422Z,7.53
2019-03-17T06:43:52.260Z,7.50
2019-03-17T06:46:21.187Z,7.36
2019-03-17T06:48:50.401Z,7.33
2019-03-17T06:51:19.232Z,7.38
2019-03-17T06:53:56.359Z,7.39
2019-03-17T06:56:17.132Z,7.35
2019-03-17T06:58:46.087Z,7.44
2019-03-17T07:01:15.012Z,7.54
2019-03-17T07:03:43.965Z,7.43
2019-03-17T07:06:14.375Z,7.43
2019-03-17T07:08:45.175Z,7.34
2019-03-17T07:11:14.045Z,7.37
2019-03-17T07:13:42.983Z,7.42
2019-03-17T07:16:11.927Z,7.74
2019-03-17T07:18:41.657Z,7.44
2019-03-17T07:21:10.576Z,7.43
2019-03-17T07:23:39.527Z,7.68
2019-03-17T07:26:08.702Z,8.12
2019-03-17T07:28:37.647Z,8.95
2019-03-17T07:31:06.684Z,9.15
2019-03-17T07:33:35.688Z,9.28
2019-03-17T07:36:04.604Z,9.05
2019-03-17T07:38:33.459Z,9.25
2019-03-17T07:41:02.432Z,9.34
2019-03-17T07:43:31.362Z,9.77
2019-03-17T07:46:00.356Z,9.81
2019-03-17T07:48:32.300Z,9.62
2019-03-17T07:51:01.221Z,9.94
2019-03-17T07:53:30.160Z,9.69
2019-03-17T07:55:59.164Z,9.35
2019-03-17T07:58:28.101Z,9.33
2019-03-17T08:00:57.071Z,9.71
2019-03-17T08:03:25.931Z,10.15
2019-03-17T08:05:54.878Z,10.67
2019-03-17T08:08:23.900Z,10.77
2019-03-17T08:10:52.808Z,10.60
2019-03-17T08:13:21.827Z,10.56
2019-03-17T08:15:51.510Z,9.98
2019-03-17T08:18:20.504Z,10.47
2019-03-17T08:20:49.521Z,10.44
2019-03-17T08:23:18.430Z,10.16
2019-03-17T08:25:47.382Z,10.04
2019-03-17T08:28:16.285Z,9.90
2019-03-17T08:30:53.099Z,9.99
2019-03-17T08:33:14.057Z,9.61
2019-03-17T08:35:42.986Z,9.99
2019-03-17T08:38:21.223Z,10.26
2019-03-17T08:40:40.990Z,10.63
2019-03-17T08:43:09.995Z,11.10
2019-03-17T08:45:38.994Z,10.55
2019-03-17T08:48:07.976Z,10.12
2019-03-17T08:50:36.994Z,9.97
2019-03-17T08:53:06.030Z,9.95
2019-03-17T08:55:35.007Z,10.03
2019-03-17T08:58:03.946Z,9.74
2019-03-17T09:00:32.894Z,10.26
2019-03-17T09:03:01.883Z,10.56
2019-03-17T09:05:30.824Z,10.49
2019-03-17T09:07:59.798Z,10.56
2019-03-17T09:10:28.706Z,10.80
2019-03-17T09:12:57.671Z,11.72
2019-03-17T09:15:26.660Z,11.74
2019-03-17T09:17:55.575Z,12.37
2019-03-17T09:20:24.546Z,12.31
2019-03-17T09:22:53.554Z,11.44
2019-03-17T09:25:22.436Z,11.04
2019-03-17T09:27:51.442Z,10.57
2019-03-17T09:30:20.371Z,10.27
2019-03-17T09:32:49.294Z,9.97
2019-03-17T09:35:18.304Z,9.93
2019-03-17T09:37:47.198Z,10.00
2019-03-17T09:40:16.042Z,10.08
2019-03-17T09:42:45.009Z,10.57
2019-03-17T09:45:13.980Z,11.67
2019-03-17T09:47:42.949Z,13.72
2019-03-17T09:50:11.932Z,14.15
2019-03-17T09:52:40.950Z,15.75
2019-03-17T09:55:09.945Z,15.35
2019-03-17T09:57:38.934Z,14.07
2019-03-17T10:00:09.480Z,13.09
2019-03-17T10:02:38.458Z,11.98
2019-03-17T10:05:08.151Z,11.34
2019-03-17T10:07:37.045Z,10.39
2019-03-17T10:10:06.302Z,10.23
2019-03-17T10:12:35.240Z,9.79
2019-03-17T10:15:04.583Z,9.64
2019-03-17T10:17:33.471Z,9.79
2019-03-17T10:20:02.396Z,9.34
2019-03-17T10:22:31.338Z,9.22
2019-03-17T10:25:00.399Z,9.20
2019-03-17T10:27:29.175Z,9.16
2019-03-17T10:29:58.119Z,9.28
2019-03-17T10:32:27.066Z,9.21
2019-03-17T10:34:55.975Z,9.31
2019-03-17T10:37:24.826Z,12.32
2019-03-17T10:39:53.761Z,14.66
2019-03-17T10:42:25.600Z,15.94
2019-03-17T10:44:54.579Z,16.81
2019-03-17T10:47:23.437Z,18.55
2019-03-17T10:49:52.379Z,18.28
2019-03-17T10:52:21.303Z,16.91
2019-03-17T10:54:50.365Z,18.18
2019-03-17T10:57:19.346Z,18.01
2019-03-17T10:59:48.250Z,16.59
2019-03-17T11:02:17.154Z,15.28
2019-03-17T11:04:46.850Z,13.84
2019-03-17T11:07:15.818Z,13.34
2019-03-17T11:09:44.779Z,15.37
2019-03-17T11:12:13.645Z,16.69
2019-03-17T11:14:42.564Z,17.79
2019-03-17T11:17:11.534Z,18.21
2019-03-17T11:19:40.522Z,20.58
2019-03-17T11:22:09.479Z,19.74
2019-03-17T11:24:38.416Z,19.16
2019-03-17T11:27:07.453Z,17.89
2019-03-17T11:29:36.389Z,16.90
2019-03-17T11:32:06.782Z,15.42
2019-03-17T11:34:34.369Z,13.98
2019-03-17T11:37:03.370Z,12.61
2019-03-17T11:39:37.687Z,11.54
2019-03-17T11:42:01.181Z,11.96
2019-03-17T11:44:30.116Z,10.80
2019-03-17T11:46:59.141Z,10.78
2019-03-17T11:49:28.027Z,11.15
2019-03-17T11:51:56.967Z,11.97
2019-03-17T11:54:25.921Z,12.19
2019-03-17T11:56:54.916Z,12.40
2019-03-17T11:59:23.856Z,11.89
2019-03-17T12:01:52.787Z,11.87
2019-03-17T12:04:21.669Z,11.19
2019-03-17T12:06:50.576Z,10.98
2019-03-17T12:09:28.583Z,11.03
2019-03-17T12:11:48.476Z,11.43
2019-03-17T12:14:17.407Z,11.80
2019-03-17T12:16:46.309Z,11.78
2019-03-17T12:19:15.266Z,11.85
2019-03-17T12:21:44.181Z,11.83
2019-03-17T12:24:13.129Z,11.78
2019-03-17T12:26:42.039Z,11.75
2019-03-17T12:29:10.953Z,11.55
2019-03-17T12:31:39.929Z,11.09
2019-03-17T12:34:08.877Z,11.05
2019-03-17T12:36:37.837Z,10.63
2019-03-17T12:39:07.342Z,10.32
2019-03-17T12:41:38.264Z,10.31
2019-03-17T12:44:05.227Z,10.37
2019-03-17T12:46:34.157Z,10.35
2019-03-17T12:49:03.096Z,10.37
2019-03-17T12:51:32.036Z,10.34
2019-03-17T12:54:01.025Z,10.32
2019-03-17T12:56:29.882Z,10.17
2019-03-17T12:58:58.799Z,10.34
2019-03-17T13:01:27.724Z,10.40
2019-03-17T13:03:56.641Z,10.48
2019-03-17T13:06:25.578Z,10.78
2019-03-17T13:08:54.517Z,10.84
2019-03-17T13:11:23.502Z,10.93
2019-03-17T13:13:52.446Z,11.18
2019-03-17T13:16:21.341Z,11.53
2019-03-17T13:18:50.236Z,11.60
2019-03-17T13:21:19.212Z,11.50
2019-03-17T13:23:48.061Z,11.45
2019-03-17T13:26:16.967Z,11.36
2019-03-17T13:28:45.939Z,11.41
2019-03-17T13:31:14.778Z,11.46
2019-03-17T13:33:43.759Z,11.41
2019-03-17T13:36:12.731Z,11.46
2019-03-17T13:38:41.717Z,11.39
2019-03-17T13:41:10.739Z,11.39
2019-03-17T13:43:39.663Z,11.50
2019-03-17T13:46:08.774Z,11.59
2019-03-17T13:48:37.702Z,11.64
2019-03-17T13:51:06.651Z,11.73
2019-03-17T13:53:35.583Z,11.95
2019-03-17T13:56:04.624Z,11.63
2019-03-17T13:58:33.561Z,11.64
2019-03-17T14:01:03.770Z,11.69
2019-03-17T14:03:32.726Z,11.78
2019-03-17T14:06:01.644Z,11.70
2019-03-17T14:08:30.613Z,11.65
2019-03-17T14:10:59.605Z,11.45
2019-03-17T14:13:28.560Z,11.27
2019-03-17T14:15:57.449Z,11.07
2019-03-17T14:18:26.378Z,11.13
2019-03-17T14:20:55.279Z,11.32
2019-03-17T14:23:24.225Z,11.10
2019-03-17T14:25:53.948Z,10.89
2019-03-17T14:28:22.964Z,10.98
2019-03-17T14:30:51.992Z,10.71
2019-03-17T14:33:20.909Z,10.39
2019-03-17T14:35:49.878Z,10.85
2019-03-17T14:38:18.821Z,10.71
2019-03-17T14:40:53.372Z,10.75
2019-03-17T14:43:17.651Z,10.82
2019-03-17T14:45:46.734Z,10.79
2019-03-17T14:48:15.616Z,10.67
2019-03-17T14:50:44.580Z,10.56
2019-03-17T14:53:13.513Z,10.46
2019-03-17T14:55:42.481Z,10.51
2019-03-17T14:58:11.412Z,10.50
2019-03-17T15:00:40.434Z,10.39
2019-03-17T15:03:09.531Z,10.34
2019-03-17T15:05:38.403Z,10.34
2019-03-17T15:08:07.485Z,10.33
2019-03-17T15:10:36.484Z,10.28
2019-03-17T15:13:05.469Z,10.37
2019-03-17T15:15:34.510Z,10.38
2019-03-17T15:18:03.515Z,10.34
2019-03-17T15:20:32.450Z,10.37
2019-03-17T15:23:01.406Z,10.64
2019-03-17T15:25:30.286Z,10.52
2019-03-17T15:27:59.227Z,10.60
2019-03-17T15:30:28.137Z,10.52
2019-03-17T15:32:57.208Z,10.37
2019-03-17T15:35:26.178Z,10.30
2019-03-17T15:37:55.097Z,10.10
2019-03-17T15:40:24.062Z,10.22
2019-03-17T15:42:52.955Z,10.30
2019-03-17T15:45:21.948Z,10.31
2019-03-17T15:47:50.859Z,10.19
2019-03-17T15:50:19.833Z,10.29
2019-03-17T15:52:48.799Z,9.96
2019-03-17T15:55:17.783Z,9.88
2019-03-17T15:57:47.075Z,9.77
2019-03-17T16:00:25.136Z,9.73
2019-03-17T16:02:46.639Z,9.71
2019-03-17T16:05:15.622Z,9.73
2019-03-17T16:07:44.554Z,9.67
2019-03-17T16:10:14.609Z,9.53
2019-03-17T16:12:43.538Z,9.50
2019-03-17T16:15:12.851Z,9.40
2019-03-17T16:17:41.769Z,9.35
2019-03-17T16:20:12.677Z,9.62
2019-03-17T16:22:41.645Z,9.52
2019-03-17T16:25:10.820Z,9.56
2019-03-17T16:27:39.916Z,9.50
2019-03-17T16:30:12.136Z,9.55
2019-03-17T16:32:41.070Z,9.44
2019-03-17T16:35:10.062Z,9.54
2019-03-17T16:37:39.059Z,9.40
2019-03-17T16:40:09.660Z,9.29
2019-03-17T16:42:38.609Z,9.14
2019-03-17T16:45:07.695Z,9.20
2019-03-17T16:47:36.621Z,9.13
2019-03-17T16:50:06.865Z,9.07
2019-03-17T16:52:35.903Z,9.29
2019-03-17T16:55:05.692Z,8.97
2019-03-17T16:57:34.605Z,9.22
2019-03-17T17:00:03.600Z,8.98
2019-03-17T17:02:32.538Z,8.90
2019-03-17T17:05:01.587Z,8.91
2019-03-17T17:07:30.493Z,8.73
2019-03-17T17:09:59.558Z,8.68
2019-03-17T17:12:28.459Z,8.67
2019-03-17T17:14:57.405Z,8.66
2019-03-17T17:17:26.292Z,8.49
2019-03-17T17:19:55.288Z,8.49
2019-03-17T17:22:24.289Z,8.42
2019-03-17T17:24:53.208Z,8.38
2019-03-17T17:27:24.750Z,8.36
2019-03-17T17:29:53.729Z,8.33
2019-03-17T17:32:22.714Z,8.31
2019-03-17T17:34:51.695Z,8.33
2019-03-17T17:37:20.646Z,8.21
2019-03-17T17:39:49.640Z,8.13
2019-03-17T17:42:18.628Z,8.08
2019-03-17T17:44:47.543Z,8.05
2019-03-17T17:47:16.595Z,8.06
2019-03-17T17:49:45.511Z,8.14
2019-03-17T17:52:14.470Z,8.13
2019-03-17T17:54:43.409Z,8.07
2019-03-17T17:57:12.470Z,8.07
2019-03-17T17:59:41.439Z,7.88
2019-03-17T18:02:10.539Z,7.82
2019-03-17T18:04:39.423Z,7.78
2019-03-17T18:07:08.499Z,7.66
2019-03-17T18:09:37.340Z,7.60
2019-03-17T18:12:06.369Z,7.60
2019-03-17T18:14:35.401Z,7.56
2019-03-17T18:17:04.306Z,7.49
2019-03-17T18:19:33.261Z,7.47
2019-03-17T18:22:02.286Z,7.49
2019-03-17T18:24:31.161Z,7.36
2019-03-17T18:27:00.155Z,7.44
2019-03-17T18:29:29.159Z,7.32
2019-03-17T18:31:58.145Z,7.26
2019-03-17T18:34:27.159Z,7.23
2019-03-17T18:36:56.056Z,7.22
2019-03-17T18:39:24.987Z,7.20
2019-03-17T18:41:53.956Z,7.09
2019-03-17T18:44:22.908Z,7.04
2019-03-17T18:46:52.686Z,7.00
2019-03-17T18:49:21.691Z,6.92
2019-03-17T18:51:50.545Z,6.88
2019-03-17T18:54:19.518Z,6.85
2019-03-17T18:56:48.455Z,6.86
2019-03-17T18:59:18.072Z,6.85
2019-03-17T19:01:46.352Z,6.76
2019-03-17T19:04:15.328Z,6.72
2019-03-17T19:06:44.239Z,7.07
2019-03-17T19:09:13.177Z,6.77
2019-03-17T19:11:42.150Z,6.75
2019-03-17T19:14:11.122Z,6.79
2019-03-17T19:16:40.110Z,6.60
2019-03-17T19:19:09.042Z,6.71
2019-03-17T19:21:38.014Z,6.58
2019-03-17T19:24:06.955Z,6.69
2019-03-17T19:26:35.910Z,6.52
2019-03-17T19:29:05.008Z,6.59
2019-03-17T19:31:33.903Z,6.63
2019-03-17T19:34:02.861Z,6.74
2019-03-17T19:36:31.865Z,6.78
2019-03-17T19:39:00.846Z,7.15
2019-03-17T19:41:29.775Z,6.86
2019-03-17T19:43:58.763Z,6.82
2019-03-17T19:46:28.366Z,6.91
2019-03-17T19:48:57.322Z,6.84
2019-03-17T19:51:26.260Z,6.74
2019-03-17T19:53:55.221Z,6.76
2019-03-17T19:56:24.177Z,6.72
2019-03-17T19:58:53.075Z,6.97
2019-03-17T20:01:22.018Z,7.15
2019-03-17T20:03:50.964Z,6.92
2019-03-17T20:06:19.891Z,6.74
2019-03-17T20:08:48.845Z,6.76
2019-03-17T20:11:17.827Z,6.57
2019-03-17T20:13:46.768Z,6.51
2019-03-17T20:16:15.734Z,6.46
2019-03-17T20:18:44.743Z,6.42
2019-03-17T20:21:13.664Z,6.27
2019-03-17T20:23:42.679Z,6.12
2019-03-17T20:26:11.583Z,5.94
2019-03-17T20:28:40.579Z,5.92
2019-03-17T20:31:09.504Z,5.71
2019-03-17T20:33:38.500Z,5.67
2019-03-17T20:36:07.488Z,5.66
2019-03-17T20:38:36.456Z,5.57
2019-03-17T20:41:05.420Z,5.54
2019-03-17T20:43:35.330Z,5.46
2019-03-17T20:46:03.323Z,5.35
2019-03-17T20:48:32.324Z,5.40
2019-03-17T20:51:01.251Z,5.30
2019-03-17T20:53:30.244Z,5.28
2019-03-17T20:55:59.238Z,5.12
2019-03-17T20:58:28.127Z,5.22
2019-03-17T21:00:57.132Z,5.16
2019-03-17T21:03:26.116Z,5.28
2019-03-17T21:05:55.037Z,5.12
2019-03-17T21:08:23.965Z,5.02
2019-03-17T21:10:52.949Z,5.07
2019-03-17T21:13:21.917Z,5.02
2019-03-17T21:15:50.924Z,4.94
2019-03-17T21:18:19.869Z,4.95
2019-03-17T21:20:48.904Z,5.00
2019-03-17T21:23:17.946Z,5.01
2019-03-17T21:25:46.878Z,5.04
2019-03-17T21:28:15.886Z,4.97
2019-03-17T21:30:44.811Z,4.97
2019-03-17T21:33:13.739Z,5.03
2019-03-17T21:35:42.751Z,4.87
2019-03-17T21:38:11.727Z,4.90
2019-03-17T21:40:56.480Z,4.99
2019-03-17T21:43:09.789Z,5.28
2019-03-17T21:45:38.770Z,5.06
2019-03-17T21:48:07.707Z,5.32
2019-03-17T21:50:36.642Z,5.50
2019-03-17T21:53:05.718Z,5.23
2019-03-17T21:55:37.306Z,5.14
2019-03-17T21:58:08.189Z,5.53
2019-03-17T22:00:35.151Z,5.27
2019-03-17T22:03:04.288Z,5.20
2019-03-17T22:05:33.266Z,5.19
2019-03-17T22:08:02.184Z,5.17
2019-03-17T22:10:31.111Z,5.19
2019-03-17T22:13:00.091Z,5.12
2019-03-17T22:15:31.569Z,4.96
2019-03-17T22:18:00.571Z,4.99
2019-03-17T22:20:29.499Z,5.04
2019-03-17T22:22:58.506Z,5.06
2019-03-17T22:25:27.380Z,5.08
2019-03-17T22:28:07.845Z,5.05
2019-03-17T22:30:25.363Z,4.99
2019-03-17T22:32:54.254Z,5.26
2019-03-17T22:35:23.246Z,5.12
2019-03-17T22:37:52.239Z,5.03
2019-03-17T22:40:21.165Z,5.07
2019-03-17T22:42:50.115Z,4.99
2019-03-17T22:45:19.147Z,5.02
2019-03-17T22:47:48.036Z,5.00
2019-03-17T22:50:17.034Z,4.97
2019-03-17T22:52:47.753Z,4.76
2019-03-17T22:55:16.760Z,4.93
2019-03-17T22:57:45.858Z,4.85
2019-03-17T23:00:15.970Z,4.96
2019-03-17T23:02:44.913Z,5.18
2019-03-17T23:05:14.039Z,4.98
2019-03-17T23:07:43.035Z,5.01
2019-03-17T23:10:11.977Z,4.81
2019-03-17T23:12:40.944Z,4.76
2019-03-17T23:15:09.826Z,4.89
2019-03-17T23:17:38.772Z,4.86
2019-03-17T23:20:08.510Z,4.78
2019-03-17T23:22:37.435Z,4.82
2019-03-17T23:25:06.709Z,4.74
2019-03-17T23:27:35.622Z,4.67
2019-03-17T23:30:04.857Z,4.61
2019-03-17T23:32:33.841Z,4.68
2019-03-17T23:35:02.838Z,4.72
2019-03-17T23:37:31.796Z,4.69
2019-03-17T23:40:00.791Z,4.74
2019-03-17T23:42:29.756Z,4.74
2019-03-17T23:44:58.659Z,4.74
2019-03-17T23:47:27.640Z,4.71
2019-03-17T23:49:56.585Z,4.61
2019-03-17T23:52:25.476Z,4.61
2019-03-17T23:54:54.688Z,4.61
2019-03-17T23:57:23.716Z,4.66
2019-03-17T23:59:52.661Z,4.71
